Time;durP1;ratioP1;P1;durP2;ratioP2;P2;SDS_P1;SDS_P2;PMS_P1;PMS_P2;Temp;Humidity;BMP_temperature;BMP_pressure;BME280_temperature;BME280_humidity;BME280_pressure;Samples;Min_cycle;Max_cycle;Signal;HPM_P1;HPM_P2
2023/05/31 00:01:45;;;;;;;10.73;3.67;;;13.80;99.90;;;;;;5020698;28;20040;-83
2023/05/31 00:04:10;;;;;;;4.60;2.85;;;13.80;99.90;;;;;;5020454;28;20034;-83
2023/05/31 00:06:36;;;;;;;7.38;3.33;;;13.80;99.90;;;;;;5020412;28;20076;-83
2023/05/31 00:09:02;;;;;;;7.43;3.20;;;13.70;99.90;;;;;;5020738;28;20037;-82
2023/05/31 00:11:28;;;;;;;7.78;3.28;;;13.70;99.90;;;;;;5021445;28;20041;-83
2023/05/31 00:13:54;;;;;;;7.65;4.05;;;13.60;99.90;;;;;;5021416;28;20060;-82
2023/05/31 00:16:19;;;;;;;9.40;3.72;;;13.60;99.90;;;;;;5019464;28;20393;-86
2023/05/31 00:18:45;;;;;;;6.43;3.25;;;13.60;99.90;;;;;;5019805;28;20044;-85
2023/05/31 00:21:10;;;;;;;8.02;3.47;;;13.50;99.90;;;;;;5016381;28;20461;-86
2023/05/31 00:23:36;;;;;;;5.43;3.03;;;13.60;99.90;;;;;;5017879;28;20029;-87
2023/05/31 00:26:01;;;;;;;9.52;3.53;;;13.50;99.90;;;;;;5020071;28;20029;-88
2023/05/31 00:28:27;;;;;;;9.05;3.42;;;13.50;99.90;;;;;;5015828;28;20041;-88
2023/05/31 00:30:53;;;;;;;10.18;3.65;;;13.40;99.90;;;;;;5018940;28;20057;-83
2023/05/31 00:33:18;;;;;;;5.30;3.33;;;13.40;99.90;;;;;;5018867;28;20036;-83
2023/05/31 00:35:44;;;;;;;6.25;3.13;;;13.40;99.90;;;;;;5019677;28;20041;-83
2023/05/31 00:38:10;;;;;;;5.57;2.88;;;13.30;99.90;;;;;;5018746;28;20044;-82
2023/05/31 00:40:35;;;;;;;7.53;3.28;;;13.30;99.90;;;;;;5018519;28;20026;-83
2023/05/31 00:43:01;;;;;;;5.93;2.92;;;13.30;99.90;;;;;;5019198;28;20065;-83
2023/05/31 00:45:28;;;;;;;4.65;2.85;;;13.20;99.90;;;;;;5018502;28;20034;-82
2023/05/31 00:47:54;;;;;;;9.43;2.80;;;13.20;99.90;;;;;;5019886;28;20253;-83
2023/05/31 00:50:20;;;;;;;9.30;2.95;;;13.10;99.90;;;;;;5021185;28;20033;-83
2023/05/31 00:52:47;;;;;;;6.15;3.13;;;13.10;99.90;;;;;;5019484;28;20045;-83
2023/05/31 00:55:13;;;;;;;7.47;3.65;;;13.10;99.90;;;;;;5019962;28;20026;-83
2023/05/31 00:57:40;;;;;;;6.60;2.70;;;13.00;99.90;;;;;;5002608;28;20033;-83
2023/05/31 01:00:07;;;;;;;7.85;2.90;;;13.00;99.90;;;;;;5019826;28;20505;-82
2023/05/31 01:02:34;;;;;;;9.30;3.25;;;13.00;99.90;;;;;;5019381;28;20030;-83
2023/05/31 01:05:01;;;;;;;8.23;3.33;;;12.90;99.90;;;;;;5019232;28;20033;-83
2023/05/31 01:07:26;;;;;;;7.15;3.08;;;12.90;99.90;;;;;;5017402;28;20089;-82
2023/05/31 01:09:53;;;;;;;7.78;2.90;;;12.90;99.90;;;;;;5018766;28;20068;-82
2023/05/31 01:12:28;;;;;;;8.35;3.25;;;12.80;99.90;;;;;;5017784;28;20040;-83
2023/05/31 01:15:02;;;;;;;8.85;3.05;;;12.80;99.90;;;;;;5019171;28;20021;-83
2023/05/31 01:17:31;;;;;;;7.05;3.30;;;12.80;99.90;;;;;;5017539;28;20042;-83
2023/05/31 01:20:08;;;;;;;7.05;3.25;;;12.70;99.90;;;;;;5016602;28;20037;-83
2023/05/31 01:22:41;;;;;;;11.20;3.05;;;12.70;99.90;;;;;;5016256;28;20093;-83
2023/05/31 01:25:39;;;;;;;8.38;3.20;;;12.70;99.90;;;;;;5015783;28;20021;-83
2023/05/31 01:28:10;;;;;;;9.13;3.30;;;12.60;99.90;;;;;;5014760;28;20117;-83
2023/05/31 01:30:37;;;;;;;7.95;3.10;;;12.60;99.90;;;;;;5015064;28;20069;-83
2023/05/31 01:33:10;;;;;;;10.23;3.20;;;12.50;99.90;;;;;;5012762;28;20854;-83
2023/05/31 01:35:35;;;;;;;7.93;3.45;;;12.50;99.90;;;;;;5015296;28;20049;-83
2023/05/31 01:38:01;;;;;;;6.90;3.03;;;12.50;99.90;;;;;;5011078;28;20091;-83
2023/05/31 01:40:27;;;;;;;7.05;3.20;;;12.40;99.90;;;;;;5009767;28;20076;-83
2023/05/31 01:42:52;;;;;;;6.93;3.30;;;12.40;99.90;;;;;;5012648;28;20052;-82
2023/05/31 01:45:19;;;;;;;8.85;3.20;;;12.40;99.90;;;;;;5001963;28;20144;-82
2023/05/31 01:47:47;;;;;;;8.32;3.63;;;12.40;99.90;;;;;;5020569;28;20111;-83
2023/05/31 01:50:13;;;;;;;11.15;3.90;;;12.30;99.90;;;;;;5018189;28;20038;-83
2023/05/31 01:52:40;;;;;;;6.85;3.13;;;12.30;99.90;;;;;;5018748;28;20063;-83
2023/05/31 01:55:07;;;;;;;7.95;3.05;;;12.30;99.90;;;;;;5018658;28;20046;-83
2023/05/31 01:57:33;;;;;;;5.72;3.10;;;12.20;99.90;;;;;;5018839;28;20029;-81
2023/05/31 02:00:00;;;;;;;7.35;3.40;;;12.20;99.90;;;;;;5020038;28;20529;-82
2023/05/31 02:02:28;;;;;;;8.55;3.40;;;12.20;99.90;;;;;;5020647;28;20034;-83
2023/05/31 02:05:08;;;;;;;8.52;3.53;;;12.10;99.90;;;;;;5018408;28;20029;-83
2023/05/31 02:07:37;;;;;;;9.63;3.30;;;12.10;99.90;;;;;;5018244;28;20056;-83
2023/05/31 02:10:03;;;;;;;7.93;3.25;;;12.00;99.90;;;;;;5018252;28;20032;-83
2023/05/31 02:12:29;;;;;;;7.90;3.75;;;12.00;99.90;;;;;;5019265;28;20036;-82
2023/05/31 02:14:55;;;;;;;7.68;3.50;;;11.90;99.90;;;;;;5018031;28;20155;-82
2023/05/31 02:17:24;;;;;;;10.02;3.50;;;11.90;99.90;;;;;;5017824;28;20041;-83
2023/05/31 02:19:53;;;;;;;9.95;3.20;;;11.90;99.90;;;;;;5017120;28;20046;-83
2023/05/31 02:22:19;;;;;;;6.40;2.95;;;11.80;99.90;;;;;;5018712;28;20037;-82
2023/05/31 02:24:45;;;;;;;8.93;3.10;;;11.70;99.90;;;;;;5019762;28;20034;-83
2023/05/31 02:27:14;;;;;;;5.22;2.90;;;11.70;99.90;;;;;;5019286;28;20045;-83
2023/05/31 02:29:40;;;;;;;5.55;2.90;;;11.60;99.90;;;;;;5019627;28;20022;-83
2023/05/31 02:32:07;;;;;;;8.23;3.00;;;11.60;99.90;;;;;;5020416;28;20172;-83
2023/05/31 02:34:33;;;;;;;5.65;3.35;;;11.50;99.90;;;;;;5021788;28;20034;-83
2023/05/31 02:37:00;;;;;;;7.53;3.28;;;11.50;99.90;;;;;;5017949;28;20052;-82
2023/05/31 02:39:25;;;;;;;6.90;3.28;;;11.50;99.90;;;;;;5018338;28;20038;-83
2023/05/31 02:41:51;;;;;;;7.60;3.05;;;11.50;99.90;;;;;;5018279;28;20026;-83
2023/05/31 02:44:17;;;;;;;7.40;3.50;;;11.40;99.90;;;;;;5018469;28;20038;-82
2023/05/31 02:46:43;;;;;;;8.33;3.03;;;11.40;99.90;;;;;;5017630;28;20030;-82
2023/05/31 02:49:09;;;;;;;8.93;3.60;;;11.40;99.90;;;;;;5017747;28;20067;-82
2023/05/31 02:51:35;;;;;;;8.75;3.17;;;11.40;99.90;;;;;;5017283;28;20110;-83
2023/05/31 02:54:00;;;;;;;8.45;3.00;;;11.40;99.90;;;;;;5016600;28;20036;-83
2023/05/31 02:56:26;;;;;;;9.82;2.85;;;11.40;99.90;;;;;;5018211;28;20044;-82
2023/05/31 02:58:52;;;;;;;7.85;2.80;;;11.40;99.90;;;;;;5016895;28;20030;-83
2023/05/31 03:01:17;;;;;;;7.83;3.07;;;11.30;99.90;;;;;;5017201;28;20421;-83
2023/05/31 03:03:43;;;;;;;6.18;2.85;;;11.30;99.90;;;;;;5016803;28;21489;-83
2023/05/31 03:06:11;;;;;;;8.23;3.22;;;11.30;99.90;;;;;;5016534;28;20041;-85
2023/05/31 03:08:37;;;;;;;7.18;2.80;;;11.30;99.90;;;;;;5017408;28;20034;-82
2023/05/31 03:11:02;;;;;;;8.70;3.28;;;11.30;99.90;;;;;;5018094;28;20088;-83
2023/05/31 03:13:28;;;;;;;7.40;3.50;;;11.30;99.90;;;;;;5018669;28;21635;-82
2023/05/31 03:15:54;;;;;;;5.90;3.03;;;11.20;99.90;;;;;;5017512;28;20056;-82
2023/05/31 03:18:20;;;;;;;8.85;3.75;;;11.20;99.90;;;;;;5018272;28;20026;-83
2023/05/31 03:20:45;;;;;;;9.02;3.60;;;11.20;99.90;;;;;;5017517;28;20038;-82
2023/05/31 03:23:11;;;;;;;8.10;4.13;;;11.20;99.90;;;;;;5017031;28;20156;-82
2023/05/31 03:25:37;;;;;;;7.45;3.30;;;11.10;99.90;;;;;;5017022;28;20034;-82
2023/05/31 03:28:03;;;;;;;10.53;3.60;;;11.10;99.90;;;;;;5016383;28;20026;-82
2023/05/31 03:30:29;;;;;;;8.20;3.27;;;11.10;99.90;;;;;;5017297;28;20096;-82
2023/05/31 03:32:55;;;;;;;10.97;3.37;;;11.10;99.90;;;;;;5019578;28;20029;-83
2023/05/31 03:35:21;;;;;;;7.07;3.23;;;11.00;99.90;;;;;;5023872;28;20754;-82
2023/05/31 03:37:46;;;;;;;10.57;4.10;;;11.00;99.90;;;;;;5021429;28;20034;-83
2023/05/31 03:40:12;;;;;;;7.63;3.73;;;11.00;99.90;;;;;;5020664;28;20034;-82
2023/05/31 03:42:38;;;;;;;9.63;3.50;;;11.00;99.90;;;;;;5022335;28;20089;-83
2023/05/31 03:45:03;;;;;;;6.63;3.00;;;11.00;99.90;;;;;;5020352;28;20038;-80
2023/05/31 03:47:29;;;;;;;6.73;3.17;;;11.00;99.90;;;;;;5020829;28;20042;-81
2023/05/31 03:49:55;;;;;;;9.40;3.30;;;11.00;99.90;;;;;;5021115;28;20116;-81
2023/05/31 03:52:20;;;;;;;5.83;3.13;;;11.00;99.90;;;;;;5021270;28;20125;-81
2023/05/31 03:54:46;;;;;;;8.50;2.80;;;11.00;99.90;;;;;;5022894;28;20044;-81
2023/05/31 03:57:12;;;;;;;5.13;3.13;;;11.00;99.90;;;;;;5019864;28;20951;-81
2023/05/31 03:59:38;;;;;;;9.40;3.23;;;11.00;99.90;;;;;;5020972;28;20037;-81
2023/05/31 04:02:04;;;;;;;8.30;2.90;;;11.00;99.90;;;;;;5020123;28;20109;-84
2023/05/31 04:04:29;;;;;;;9.93;3.10;;;11.00;99.90;;;;;;5021813;28;21075;-83
2023/05/31 04:06:55;;;;;;;6.17;3.30;;;11.00;99.90;;;;;;5002244;28;20042;-83
2023/05/31 04:09:41;;;;;;;7.90;3.30;;;11.10;99.90;;;;;;5019652;28;20056;-83
2023/05/31 04:12:07;;;;;;;7.15;3.00;;;11.00;99.90;;;;;;5020283;28;20185;-84
2023/05/31 04:14:33;;;;;;;7.60;3.47;;;11.10;99.90;;;;;;5000516;28;21148;-81
2023/05/31 04:16:58;;;;;;;5.97;3.03;;;11.10;99.90;;;;;;5017703;28;20065;-82
2023/05/31 04:19:24;;;;;;;7.70;3.40;;;11.10;99.90;;;;;;5018725;28;20053;-81
2023/05/31 04:21:50;;;;;;;10.02;3.25;;;11.10;99.90;;;;;;5020839;28;20049;-84
2023/05/31 04:24:15;;;;;;;5.77;3.00;;;11.10;99.90;;;;;;5017878;28;20029;-81
2023/05/31 04:26:41;;;;;;;7.18;3.03;;;11.20;99.90;;;;;;5014775;28;20609;-81
2023/05/31 04:29:07;;;;;;;6.37;3.30;;;11.20;99.90;;;;;;5018022;28;20072;-81
2023/05/31 04:31:35;;;;;;;6.35;3.15;;;11.30;99.90;;;;;;5017383;28;21977;-81
2023/05/31 04:34:04;;;;;;;8.53;3.37;;;11.30;99.90;;;;;;5017788;28;20061;-81
2023/05/31 04:36:32;;;;;;;8.53;3.43;;;11.40;99.90;;;;;;5016295;28;20056;-81
2023/05/31 04:38:58;;;;;;;6.45;2.95;;;11.40;99.90;;;;;;5016464;28;20095;-82
2023/05/31 04:41:25;;;;;;;8.50;3.20;;;11.50;99.90;;;;;;5017014;28;20084;-82
2023/05/31 04:43:53;;;;;;;8.50;2.80;;;11.60;99.90;;;;;;5017199;28;20030;-81
2023/05/31 04:46:19;;;;;;;6.30;3.20;;;11.70;99.90;;;;;;5015340;28;20038;-82
2023/05/31 04:48:47;;;;;;;7.13;3.03;;;11.80;99.90;;;;;;5018798;28;20037;-82
2023/05/31 04:51:13;;;;;;;9.07;3.35;;;11.80;99.90;;;;;;5013826;28;20056;-82
2023/05/31 04:53:39;;;;;;;5.80;2.67;;;11.90;99.90;;;;;;5013786;28;20085;-82
2023/05/31 04:56:06;;;;;;;7.80;3.10;;;12.00;99.90;;;;;;5017477;28;21402;-82
2023/05/31 04:58:32;;;;;;;8.52;3.10;;;12.00;99.90;;;;;;5016010;28;20026;-82
2023/05/31 05:00:59;;;;;;;8.93;3.63;;;12.10;99.90;;;;;;5012113;28;20034;-84
2023/05/31 05:03:25;;;;;;;8.90;3.53;;;12.20;99.90;;;;;;5011997;28;20030;-84
2023/05/31 05:05:52;;;;;;;8.93;3.10;;;12.20;99.90;;;;;;5012990;28;20044;-84
2023/05/31 05:08:18;;;;;;;7.85;2.80;;;12.30;99.90;;;;;;5012333;28;20128;-84
2023/05/31 05:10:43;;;;;;;8.05;2.95;;;12.30;99.90;;;;;;5012262;28;20937;-84
2023/05/31 05:13:10;;;;;;;5.90;3.20;;;12.40;99.90;;;;;;5012031;28;21350;-84
2023/05/31 05:15:35;;;;;;;6.57;3.35;;;12.50;99.90;;;;;;5009131;28;20045;-84
2023/05/31 05:18:02;;;;;;;7.07;2.90;;;12.60;99.90;;;;;;4990987;28;20387;-83
2023/05/31 05:20:28;;;;;;;8.73;3.58;;;12.60;99.90;;;;;;5005510;28;20048;-84
2023/05/31 05:22:53;;;;;;;8.15;3.20;;;12.70;99.90;;;;;;5006131;28;20030;-84
2023/05/31 05:25:21;;;;;;;6.82;2.85;;;12.80;99.90;;;;;;5018274;28;20030;-84
2023/05/31 05:27:47;;;;;;;8.52;3.17;;;12.90;99.90;;;;;;5019472;28;20042;-84
2023/05/31 05:30:13;;;;;;;9.45;2.53;;;13.00;99.90;;;;;;5020150;28;20060;-83
2023/05/31 05:32:38;;;;;;;10.32;3.03;;;13.10;99.90;;;;;;5021920;28;20037;-84
2023/05/31 05:35:06;;;;;;;8.63;3.38;;;13.20;99.90;;;;;;5013388;28;20034;-90
2023/05/31 05:37:31;;;;;;;10.02;3.50;;;13.30;99.90;;;;;;5012191;28;20044;-89
2023/05/31 05:39:59;;;;;;;9.60;2.80;;;13.30;99.90;;;;;;5011527;28;20058;-86
2023/05/31 05:42:24;;;;;;;9.35;3.13;;;13.40;99.90;;;;;;5011828;28;20051;-88
2023/05/31 05:44:52;;;;;;;6.07;2.88;;;13.50;99.90;;;;;;5028765;28;20109;-87
2023/05/31 05:47:18;;;;;;;7.47;2.90;;;13.60;99.90;;;;;;5011448;28;20040;-87
2023/05/31 05:49:44;;;;;;;12.82;3.50;;;13.80;99.90;;;;;;5010606;28;20025;-87
2023/05/31 05:52:09;;;;;;;9.38;4.25;;;13.90;99.90;;;;;;5013514;28;20049;-88
2023/05/31 05:54:35;;;;;;;13.18;3.75;;;14.00;99.90;;;;;;5009036;28;20070;-86
2023/05/31 05:57:01;;;;;;;6.82;2.70;;;14.20;99.90;;;;;;5011889;28;20053;-87
2023/05/31 05:59:27;;;;;;;12.48;3.50;;;14.30;99.90;;;;;;5012982;28;20053;-86
2023/05/31 06:01:53;;;;;;;9.93;3.08;;;14.40;99.90;;;;;;5010932;28;20076;-87
2023/05/31 06:04:18;;;;;;;12.00;3.33;;;14.60;99.90;;;;;;4998561;28;20028;-87
2023/05/31 06:06:44;;;;;;;12.05;3.13;;;14.60;99.90;;;;;;5016585;28;20056;-88
2023/05/31 06:09:10;;;;;;;9.32;2.90;;;14.60;99.90;;;;;;5000751;28;20041;-87
2023/05/31 06:11:35;;;;;;;12.35;3.47;;;14.70;99.90;;;;;;5014622;28;20042;-85
2023/05/31 06:14:01;;;;;;;10.77;3.25;;;14.80;99.90;;;;;;5012418;28;20033;-89
2023/05/31 06:16:26;;;;;;;8.25;3.47;;;14.90;99.90;;;;;;5012890;28;20040;-85
2023/05/31 06:18:53;;;;;;;5.80;2.70;;;15.10;99.90;;;;;;5015053;28;20029;-87
2023/05/31 06:21:18;;;;;;;9.48;3.03;;;15.20;99.90;;;;;;5016749;28;20028;-86
2023/05/31 06:23:44;;;;;;;11.55;2.95;;;15.30;99.90;;;;;;5015636;28;20061;-86
2023/05/31 06:26:10;;;;;;;12.32;3.35;;;15.40;99.90;;;;;;5016638;28;20038;-85
2023/05/31 06:28:36;;;;;;;8.45;3.33;;;15.50;99.90;;;;;;5001414;28;21483;-87
2023/05/31 06:31:03;;;;;;;11.82;2.95;;;15.60;99.90;;;;;;5025241;28;20041;-87
2023/05/31 06:33:28;;;;;;;10.02;3.50;;;15.70;99.90;;;;;;5020985;28;20041;-85
2023/05/31 06:35:54;;;;;;;12.05;3.45;;;15.80;99.90;;;;;;5020980;28;20053;-86
2023/05/31 06:38:21;;;;;;;10.63;3.55;;;15.90;99.90;;;;;;5014390;28;20021;-86
2023/05/31 06:40:47;;;;;;;6.40;2.75;;;16.00;99.90;;;;;;4999963;28;20036;-86
2023/05/31 06:43:13;;;;;;;6.78;3.10;;;16.10;99.90;;;;;;5014581;28;20482;-87
2023/05/31 06:45:41;;;;;;;6.63;2.88;;;16.20;99.90;;;;;;5011113;28;20037;-85
2023/05/31 06:48:08;;;;;;;9.68;3.50;;;16.30;99.90;;;;;;5013739;28;20032;-89
2023/05/31 06:50:34;;;;;;;10.43;3.35;;;16.50;99.90;;;;;;5013313;28;20038;-88
2023/05/31 06:52:59;;;;;;;6.97;2.80;;;16.60;99.90;;;;;;4997483;28;20059;-87
2023/05/31 06:55:25;;;;;;;13.77;3.38;;;16.60;99.90;;;;;;5011909;28;20042;-85
2023/05/31 06:57:51;;;;;;;10.70;3.35;;;16.70;99.90;;;;;;4995582;28;20041;-88
2023/05/31 07:00:17;;;;;;;10.48;3.08;;;16.80;99.90;;;;;;5012886;28;20173;-86
2023/05/31 07:02:43;;;;;;;7.97;3.10;;;16.80;99.90;;;;;;5012215;28;20449;-88
2023/05/31 07:05:09;;;;;;;14.10;3.20;;;16.80;99.90;;;;;;5012138;28;20074;-87
2023/05/31 07:07:34;;;;;;;10.20;3.13;;;16.80;99.90;;;;;;5007478;28;20107;-86
2023/05/31 07:10:00;;;;;;;10.82;3.25;;;16.90;99.90;;;;;;5012282;28;20025;-84
2023/05/31 07:12:26;;;;;;;11.27;3.10;;;17.00;99.90;;;;;;5013167;28;20033;-83
2023/05/31 07:14:52;;;;;;;7.05;3.13;;;17.10;99.90;;;;;;5012356;28;20107;-84
2023/05/31 07:17:17;;;;;;;9.63;3.20;;;17.10;99.90;;;;;;5012725;28;20052;-83
2023/05/31 07:19:47;;;;;;;9.55;2.80;;;17.20;99.90;;;;;;5011719;28;20033;-82
2023/05/31 07:22:15;;;;;;;13.60;3.38;;;17.30;99.90;;;;;;5009015;28;20038;-83
2023/05/31 07:24:40;;;;;;;10.05;3.58;;;17.30;99.90;;;;;;5012697;28;20034;-83
2023/05/31 07:27:07;;;;;;;10.02;3.13;;;17.30;99.90;;;;;;5010293;28;20056;-82
2023/05/31 07:29:33;;;;;;;13.45;3.50;;;17.30;99.90;;;;;;5012655;28;20044;-83
2023/05/31 07:31:58;;;;;;;9.07;3.10;;;17.30;99.90;;;;;;5012743;28;20042;-83
2023/05/31 07:34:24;;;;;;;8.77;3.13;;;17.40;99.90;;;;;;5011785;28;20034;-83
2023/05/31 07:36:49;;;;;;;8.55;2.97;;;17.50;99.90;;;;;;5010998;28;20140;-83
2023/05/31 07:39:15;;;;;;;12.70;3.40;;;17.50;99.90;;;;;;5011291;28;20034;-84
2023/05/31 07:41:42;;;;;;;8.20;3.08;;;17.60;99.90;;;;;;5011208;28;20040;-84
2023/05/31 07:44:08;;;;;;;11.23;3.30;;;17.70;99.90;;;;;;5011491;28;20148;-84
2023/05/31 07:46:35;;;;;;;8.55;3.00;;;17.80;99.90;;;;;;5010395;28;20030;-84
2023/05/31 07:49:01;;;;;;;5.60;2.60;;;17.90;99.90;;;;;;5012422;28;20033;-83
2023/05/31 07:51:30;;;;;;;11.57;3.45;;;17.90;99.90;;;;;;5016247;28;20044;-82
2023/05/31 07:53:56;;;;;;;10.30;3.33;;;17.90;99.90;;;;;;5017262;28;20034;-81
2023/05/31 07:56:22;;;;;;;12.02;3.20;;;18.00;99.90;;;;;;5024022;28;20033;-82
2023/05/31 07:58:47;;;;;;;6.57;2.67;;;18.10;99.90;;;;;;5016594;28;20131;-82
2023/05/31 08:01:13;;;;;;;9.32;3.20;;;18.10;99.90;;;;;;5012938;28;20049;-83
2023/05/31 08:03:40;;;;;;;7.90;3.17;;;18.10;99.90;;;;;;4995306;28;20040;-83
2023/05/31 08:06:05;;;;;;;10.25;3.63;;;18.10;99.90;;;;;;5011253;28;21271;-83
2023/05/31 08:08:32;;;;;;;11.40;3.22;;;18.10;99.90;;;;;;5012421;28;20026;-82
2023/05/31 08:10:58;;;;;;;14.52;3.20;;;18.10;99.90;;;;;;5012004;28;20052;-83
2023/05/31 08:13:24;;;;;;;14.07;3.78;;;18.10;99.90;;;;;;5014145;28;20037;-83
2023/05/31 08:15:51;;;;;;;8.05;3.38;;;18.20;99.90;;;;;;5012841;28;20030;-83
2023/05/31 08:18:17;;;;;;;7.65;3.30;;;18.30;99.90;;;;;;4996576;28;20021;-83
2023/05/31 08:20:43;;;;;;;13.10;3.50;;;18.30;99.90;;;;;;5014090;28;20105;-83
2023/05/31 08:23:08;;;;;;;13.40;3.47;;;18.50;99.90;;;;;;5016299;28;20112;-82
2023/05/31 08:25:34;;;;;;;8.05;2.90;;;18.50;99.90;;;;;;5018426;28;20044;-83
2023/05/31 08:28:00;;;;;;;9.38;2.90;;;18.60;99.90;;;;;;5016677;28;20026;-83
2023/05/31 08:30:25;;;;;;;12.52;3.88;;;18.70;99.90;;;;;;5014692;28;20413;-83
2023/05/31 08:32:52;;;;;;;8.68;2.90;;;18.70;99.90;;;;;;5014941;28;20035;-83
2023/05/31 08:35:17;;;;;;;8.90;3.00;;;18.80;99.90;;;;;;5013203;28;20056;-83
2023/05/31 08:37:43;;;;;;;11.38;3.20;;;18.80;99.90;;;;;;5012841;28;20029;-82
2023/05/31 08:40:09;;;;;;;9.75;3.25;;;19.00;99.90;;;;;;5012826;28;20120;-82
2023/05/31 08:42:55;;;;;;;10.70;3.20;;;19.00;99.90;;;;;;5011672;28;20616;-84
2023/05/31 08:45:21;;;;;;;8.88;3.55;;;19.00;99.90;;;;;;5010032;28;20030;-83
2023/05/31 08:47:56;;;;;;;8.25;3.50;;;19.00;99.90;;;;;;5012611;28;20084;-83
2023/05/31 08:50:24;;;;;;;8.07;3.05;;;19.10;99.90;;;;;;5011063;28;20429;-83
2023/05/31 08:52:50;;;;;;;4.97;2.80;;;19.10;99.90;;;;;;5010697;28;20029;-83
2023/05/31 08:55:17;;;;;;;8.45;3.33;;;19.20;99.90;;;;;;5008039;28;20033;-84
2023/05/31 08:57:43;;;;;;;9.60;2.95;;;19.20;99.90;;;;;;5009292;28;20044;-83
2023/05/31 09:00:10;;;;;;;9.57;3.33;;;19.30;99.90;;;;;;5010332;28;20192;-83
2023/05/31 09:02:37;;;;;;;8.82;2.80;;;19.40;99.90;;;;;;5009150;28;20022;-83
2023/05/31 09:05:04;;;;;;;8.85;2.83;;;19.40;99.90;;;;;;5008292;28;20492;-83
2023/05/31 09:07:30;;;;;;;8.15;3.35;;;19.50;99.90;;;;;;5011405;28;20045;-83
2023/05/31 09:09:55;;;;;;;8.68;3.25;;;19.70;99.90;;;;;;5022297;28;20056;-83
2023/05/31 09:12:21;;;;;;;6.35;3.00;;;19.80;99.90;;;;;;5021835;28;20057;-83
2023/05/31 09:14:47;;;;;;;8.00;3.25;;;19.90;99.90;;;;;;5023781;28;20084;-83
2023/05/31 09:17:13;;;;;;;6.45;2.97;;;20.00;99.90;;;;;;5016991;28;20034;-83
2023/05/31 09:19:51;;;;;;;9.68;2.70;;;20.10;99.90;;;;;;5011071;28;20677;-84
2023/05/31 09:22:16;;;;;;;9.48;2.83;;;20.10;99.90;;;;;;5013292;28;20112;-83
2023/05/31 09:24:56;;;;;;;8.35;2.92;;;20.20;99.90;;;;;;5012328;28;21025;-83
2023/05/31 09:27:22;;;;;;;10.05;3.50;;;20.30;99.70;;;;;;5010164;28;20030;-84
2023/05/31 09:29:54;;;;;;;8.50;3.20;;;20.50;99.30;;;;;;5005288;28;20026;-75
2023/05/31 09:32:20;;;;;;;8.60;2.85;;;20.60;99.90;;;;;;5001642;28;20040;-75
2023/05/31 09:34:46;;;;;;;11.80;3.38;;;20.70;99.90;;;;;;5001381;28;20030;-75
2023/05/31 09:37:23;;;;;;;9.38;2.92;;;20.80;99.40;;;;;;5001874;28;20187;-75
2023/05/31 09:39:58;;;;;;;5.13;2.90;;;21.10;98.40;;;;;;4998731;28;20025;-75
2023/05/31 09:42:28;;;;;;;8.82;2.90;;;21.30;97.80;;;;;;4994345;28;20436;-75
2023/05/31 09:44:54;;;;;;;12.70;2.75;;;21.50;98.60;;;;;;4993637;28;20557;-75
2023/05/31 09:47:25;;;;;;;8.90;2.90;;;21.80;97.90;;;;;;4994067;28;20060;-75
2023/05/31 09:49:53;;;;;;;11.95;3.25;;;22.10;96.90;;;;;;4993885;28;20042;-75
2023/05/31 09:52:28;;;;;;;9.40;2.92;;;22.20;96.70;;;;;;4993337;28;20052;-75
2023/05/31 09:54:56;;;;;;;12.30;3.67;;;22.40;94.60;;;;;;4994189;28;21604;-76
2023/05/31 09:57:31;;;;;;;7.72;2.42;;;22.40;96.20;;;;;;4993521;28;20741;-76
2023/05/31 10:00:00;;;;;;;8.38;2.90;;;22.60;94.70;;;;;;4994523;28;20044;-76
2023/05/31 10:02:27;;;;;;;9.65;2.90;;;22.70;94.40;;;;;;4991811;28;20053;-75
2023/05/31 10:04:56;;;;;;;6.47;2.97;;;22.90;94.40;;;;;;4994574;28;20065;-75
2023/05/31 10:07:23;;;;;;;10.80;3.00;;;22.90;94.30;;;;;;5000811;28;20041;-75
2023/05/31 10:09:48;;;;;;;5.75;2.67;;;22.90;94.70;;;;;;5000249;28;20723;-76
2023/05/31 10:12:18;;;;;;;8.57;2.80;;;23.00;95.00;;;;;;5004207;28;20046;-78
2023/05/31 10:14:49;;;;;;;8.50;2.80;;;23.00;94.00;;;;;;5002809;28;20061;-75
2023/05/31 10:17:20;;;;;;;8.30;3.03;;;23.10;94.70;;;;;;5002332;28;20034;-75
2023/05/31 10:19:53;;;;;;;10.13;3.10;;;23.20;94.00;;;;;;5002173;28;20034;-76
2023/05/31 10:22:20;;;;;;;9.67;2.73;;;23.20;94.10;;;;;;5001907;28;20104;-75
2023/05/31 10:24:52;;;;;;;6.65;2.90;;;23.30;93.50;;;;;;5002622;28;21108;-76
2023/05/31 10:27:21;;;;;;;8.82;3.55;;;23.40;94.00;;;;;;5001420;28;20030;-76
2023/05/31 10:29:52;;;;;;;9.65;3.20;;;23.40;93.30;;;;;;5003578;28;20160;-76
2023/05/31 10:32:22;;;;;;;7.10;2.92;;;23.40;94.20;;;;;;5008311;28;20041;-83
2023/05/31 10:34:50;;;;;;;7.38;3.10;;;23.40;93.10;;;;;;5013811;28;20117;-84
2023/05/31 10:37:16;;;;;;;6.68;2.95;;;23.60;93.80;;;;;;5011368;28;20041;-84
2023/05/31 10:39:55;;;;;;;5.88;2.47;;;23.60;92.10;;;;;;5013161;28;20033;-83
2023/05/31 10:42:56;;;;;;;8.00;2.90;;;23.80;92.50;;;;;;5014261;28;20061;-83
2023/05/31 10:45:29;;;;;;;9.13;3.47;;;23.90;92.00;;;;;;4993373;28;20065;-83
2023/05/31 10:48:21;;;;;;;9.77;2.83;;;23.90;91.80;;;;;;5014150;28;20529;-83
2023/05/31 10:50:57;;;;;;;6.85;2.75;;;23.80;91.70;;;;;;5015087;28;20149;-83
2023/05/31 10:53:34;;;;;;;6.70;2.53;;;23.90;91.50;;;;;;5012078;28;20521;-84
2023/05/31 10:56:05;;;;;;;7.07;2.50;;;23.90;91.50;;;;;;5014368;28;20037;-83
2023/05/31 10:58:31;;;;;;;6.45;2.75;;;23.90;91.30;;;;;;5016824;28;20109;-83
2023/05/31 11:01:02;;;;;;;11.85;3.80;;;24.10;91.70;;;;;;5012064;28;20068;-83
2023/05/31 11:03:29;;;;;;;8.35;3.45;;;24.20;89.80;;;;;;5016854;28;20041;-83
2023/05/31 11:06:03;;;;;;;6.85;2.75;;;24.10;90.40;;;;;;5014074;28;20030;-83
2023/05/31 11:08:29;;;;;;;7.25;2.47;;;24.20;89.00;;;;;;5011307;28;20062;-84
2023/05/31 11:11:29;;;;;;;7.20;2.83;;;24.10;90.40;;;;;;5014030;28;20056;-84
2023/05/31 11:13:59;;;;;;;7.40;2.80;;;24.10;89.50;;;;;;5016319;28;20037;-83
2023/05/31 11:16:31;;;;;;;5.50;2.90;;;24.10;90.80;;;;;;5012623;28;20036;-83
2023/05/31 11:19:06;;;;;;;7.88;3.15;;;24.20;88.80;;;;;;5016497;28;20060;-83
2023/05/31 11:21:52;;;;;;;12.32;3.28;;;24.20;89.70;;;;;;5018106;28;20034;-83
2023/05/31 11:24:36;;;;;;;7.13;2.88;;;24.20;92.00;;;;;;5015390;28;20034;-84
2023/05/31 11:27:04;;;;;;;5.43;2.35;;;24.50;86.40;;;;;;5009523;23;20112;-82
2023/05/31 11:29:48;;;;;;;8.07;3.03;;;24.70;82.20;;;;;;5005294;28;20064;-82
2023/05/31 11:32:20;;;;;;;8.82;2.80;;;24.70;84.50;;;;;;5008238;28;20424;-81
2023/05/31 11:34:53;;;;;;;7.00;3.15;;;25.10;84.90;;;;;;5007076;28;20573;-81
2023/05/31 11:37:26;;;;;;;14.18;3.42;;;25.20;84.20;;;;;;5007256;28;20395;-81
2023/05/31 11:39:54;;;;;;;6.53;2.72;;;25.20;83.30;;;;;;5011258;28;20029;-82
2023/05/31 11:42:20;;;;;;;6.00;2.75;;;25.30;85.40;;;;;;5002796;28;20025;-81
2023/05/31 11:44:46;;;;;;;7.22;3.00;;;25.10;84.00;;;;;;5004488;28;21495;-80
2023/05/31 11:47:30;;;;;;;7.70;2.90;;;25.00;83.50;;;;;;5003457;28;20121;-79
2023/05/31 11:49:57;;;;;;;9.10;3.60;;;24.90;83.60;;;;;;5004614;28;20494;-79
2023/05/31 11:52:23;;;;;;;9.27;3.70;;;25.00;85.70;;;;;;5005926;28;20129;-79
2023/05/31 11:54:49;;;;;;;11.68;3.55;;;25.00;82.70;;;;;;5007567;28;20033;-79
2023/05/31 11:57:20;;;;;;;7.78;3.05;;;25.30;84.60;;;;;;5007550;28;20228;-79
2023/05/31 11:59:46;;;;;;;15.20;3.75;;;25.40;84.00;;;;;;5007679;28;20452;-82
2023/05/31 12:02:12;;;;;;;10.57;3.40;;;25.40;82.60;;;;;;5006912;28;20030;-80
2023/05/31 12:04:42;;;;;;;9.52;3.30;;;25.50;81.00;;;;;;5007788;28;20040;-81
2023/05/31 12:07:15;;;;;;;6.63;2.83;;;25.60;83.00;;;;;;5008167;28;20061;-81
2023/05/31 12:09:40;;;;;;;7.22;3.38;;;25.60;81.00;;;;;;5007885;28;20026;-81
2023/05/31 12:12:06;;;;;;;7.85;3.10;;;25.70;85.60;;;;;;5007627;28;20041;-80
2023/05/31 12:14:32;;;;;;;7.78;3.45;;;25.70;82.50;;;;;;4997649;28;20041;-80
2023/05/31 12:17:04;;;;;;;8.02;2.97;;;25.70;82.40;;;;;;4997869;28;20038;-80
2023/05/31 12:19:30;;;;;;;5.85;3.33;;;25.90;82.50;;;;;;4998073;28;21472;-79
2023/05/31 12:21:56;;;;;;;6.35;2.95;;;25.80;82.10;;;;;;4996691;28;20129;-81
2023/05/31 12:24:22;;;;;;;7.35;2.88;;;26.00;83.80;;;;;;4997751;28;20041;-81
2023/05/31 12:26:48;;;;;;;7.45;3.25;;;26.20;77.00;;;;;;4998299;28;20043;-80
2023/05/31 12:29:15;;;;;;;8.35;3.33;;;26.10;78.70;;;;;;4996448;28;20037;-80
2023/05/31 12:31:41;;;;;;;8.35;3.72;;;26.10;77.80;;;;;;4996851;28;20473;-82
2023/05/31 12:34:11;;;;;;;9.18;3.72;;;26.20;80.20;;;;;;4995731;28;20034;-81
2023/05/31 12:36:49;;;;;;;7.53;3.45;;;26.30;82.30;;;;;;4997159;28;20184;-80
2023/05/31 12:39:21;;;;;;;9.63;3.28;;;26.40;80.90;;;;;;4995569;28;20064;-80
2023/05/31 12:41:48;;;;;;;7.13;3.20;;;26.40;79.30;;;;;;4997968;28;20014;-80
2023/05/31 12:44:16;;;;;;;8.18;3.15;;;26.10;80.40;;;;;;4998334;28;20390;-80
2023/05/31 12:46:45;;;;;;;7.20;3.25;;;26.00;81.80;;;;;;4997541;28;20080;-79
2023/05/31 12:49:18;;;;;;;8.77;3.47;;;25.80;80.10;;;;;;4996156;28;20050;-82